Terminal Aerodrome Forecast
Issued by NWS

Home | Current Version | Previous Version | Text Only | Print | Product List | Glossary On
Versions: 1 2 3 4 5 6 7 8 9 10 11 12 13 14 15 16 17 18 19 20 21 22 23 24 25 26 27 28 29
000
FTUS45 KSLC 221138
TAFPVU
TAF
KPVU 221138Z 2212/2312 VRB05KT P6SM VCSH SCT010 BKN020
     FM221600 32012G18KT P6SM VCSH SCT030 BKN040
     FM222000 34020G30KT P6SM VCSH SCT050 BKN060
     FM230200 34015KT P6SM SCT050 BKN060
      AMD LTD TO CLD VIS AND WIND=

USA.gov is the U.S. government's official web portal to all federal, state and local government web resources and services.